sensor_id;sensor_type;location;lat;lon;timestamp;temperature;humidity
26182;DHT22;13927;51.534;11.866;2023-08-12T00:02:01;17.70;99.90
26182;DHT22;13927;51.534;11.866;2023-08-12T00:04:28;17.70;99.90
26182;DHT22;13927;51.534;11.866;2023-08-12T00:06:54;17.70;99.90
26182;DHT22;13927;51.534;11.866;2023-08-12T00:09:23;17.70;99.90
26182;DHT22;13927;51.534;11.866;2023-08-12T00:11:50;17.70;99.90
26182;DHT22;13927;51.534;11.866;2023-08-12T00:14:22;17.60;99.90
26182;DHT22;13927;51.534;11.866;2023-08-12T00:16:54;17.60;99.90
26182;DHT22;13927;51.534;11.866;2023-08-12T00:19:21;17.60;99.90
26182;DHT22;13927;51.534;11.866;2023-08-12T00:21:48;17.60;99.90
26182;DHT22;13927;51.534;11.866;2023-08-12T00:24:19;17.60;99.90
26182;DHT22;13927;51.534;11.866;2023-08-12T00:26:48;17.60;99.90
26182;DHT22;13927;51.534;11.866;2023-08-12T00:29:16;17.60;99.90
26182;DHT22;13927;51.534;11.866;2023-08-12T00:31:49;17.50;99.90
26182;DHT22;13927;51.534;11.866;2023-08-12T00:34:19;17.50;99.90
26182;DHT22;13927;51.534;11.866;2023-08-12T00:36:45;17.40;99.90
26182;DHT22;13927;51.534;11.866;2023-08-12T00:39:15;17.50;99.90
26182;DHT22;13927;51.534;11.866;2023-08-12T00:41:43;17.40;99.90
26182;DHT22;13927;51.534;11.866;2023-08-12T00:44:12;17.40;99.90
26182;DHT22;13927;51.534;11.866;2023-08-12T00:46:41;17.40;99.90
26182;DHT22;13927;51.534;11.866;2023-08-12T00:49:14;17.40;99.90
26182;DHT22;13927;51.534;11.866;2023-08-12T00:51:44;17.30;99.90
26182;DHT22;13927;51.534;11.866;2023-08-12T00:54:16;17.30;99.90
26182;DHT22;13927;51.534;11.866;2023-08-12T00:56:43;17.30;99.90
26182;DHT22;13927;51.534;11.866;2023-08-12T00:59:10;17.30;99.90
26182;DHT22;13927;51.534;11.866;2023-08-12T01:01:43;17.30;99.90
26182;DHT22;13927;51.534;11.866;2023-08-12T01:04:15;17.30;99.90
26182;DHT22;13927;51.534;11.866;2023-08-12T01:06:43;17.30;99.90
26182;DHT22;13927;51.534;11.866;2023-08-12T01:09:09;17.30;99.90
26182;DHT22;13927;51.534;11.866;2023-08-12T01:14:45;17.30;99.90
26182;DHT22;13927;51.534;11.866;2023-08-12T01:17:21;17.20;99.90
26182;DHT22;13927;51.534;11.866;2023-08-12T01:19:50;17.20;99.90
26182;DHT22;13927;51.534;11.866;2023-08-12T01:22:30;17.20;99.90
26182;DHT22;13927;51.534;11.866;2023-08-12T01:25:24;17.20;99.90
26182;DHT22;13927;51.534;11.866;2023-08-12T01:27:52;17.20;99.90
26182;DHT22;13927;51.534;11.866;2023-08-12T01:30:21;17.20;99.90
26182;DHT22;13927;51.534;11.866;2023-08-12T01:36:16;17.10;99.90
26182;DHT22;13927;51.534;11.866;2023-08-12T01:38:46;17.10;99.90
26182;DHT22;13927;51.534;11.866;2023-08-12T01:41:16;17.00;99.90
26182;DHT22;13927;51.534;11.866;2023-08-12T01:43:42;17.10;99.90
26182;DHT22;13927;51.534;11.866;2023-08-12T01:46:10;17.00;99.90
26182;DHT22;13927;51.534;11.866;2023-08-12T01:48:38;17.10;99.90
26182;DHT22;13927;51.534;11.866;2023-08-12T01:51:05;17.10;99.90
26182;DHT22;13927;51.534;11.866;2023-08-12T01:53:38;17.10;99.90
26182;DHT22;13927;51.534;11.866;2023-08-12T01:56:04;17.10;99.90
26182;DHT22;13927;51.534;11.866;2023-08-12T01:58:30;17.10;99.90
26182;DHT22;13927;51.534;11.866;2023-08-12T02:00:57;17.10;99.90
26182;DHT22;13927;51.534;11.866;2023-08-12T02:06:31;17.10;99.90
26182;DHT22;13927;51.534;11.866;2023-08-12T02:08:59;17.10;99.90
26182;DHT22;13927;51.534;11.866;2023-08-12T02:11:27;17.20;99.90
26182;DHT22;13927;51.534;11.866;2023-08-12T02:13:53;17.20;99.90
26182;DHT22;13927;51.534;11.866;2023-08-12T02:16:22;17.20;99.90
26182;DHT22;13927;51.534;11.866;2023-08-12T02:18:58;17.20;99.90
26182;DHT22;13927;51.534;11.866;2023-08-12T02:21:30;17.20;99.90
26182;DHT22;13927;51.534;11.866;2023-08-12T02:23:58;17.20;99.90
26182;DHT22;13927;51.534;11.866;2023-08-12T02:26:28;17.10;99.90
26182;DHT22;13927;51.534;11.866;2023-08-12T02:29:01;17.20;99.90
26182;DHT22;13927;51.534;11.866;2023-08-12T02:31:38;17.20;99.90
26182;DHT22;13927;51.534;11.866;2023-08-12T02:34:09;17.20;99.90
26182;DHT22;13927;51.534;11.866;2023-08-12T02:36:38;17.20;99.90
26182;DHT22;13927;51.534;11.866;2023-08-12T02:39:06;17.20;99.90
26182;DHT22;13927;51.534;11.866;2023-08-12T02:41:41;17.20;99.90
26182;DHT22;13927;51.534;11.866;2023-08-12T02:44:23;17.10;99.90
26182;DHT22;13927;51.534;11.866;2023-08-12T02:47:15;17.10;99.90
26182;DHT22;13927;51.534;11.866;2023-08-12T02:49:45;17.10;99.90
26182;DHT22;13927;51.534;11.866;2023-08-12T02:52:17;17.10;99.90
26182;DHT22;13927;51.534;11.866;2023-08-12T02:55:15;17.10;99.90
26182;DHT22;13927;51.534;11.866;2023-08-12T02:57:42;17.10;99.90
26182;DHT22;13927;51.534;11.866;2023-08-12T03:00:09;17.10;99.90
26182;DHT22;13927;51.534;11.866;2023-08-12T03:02:52;17.10;99.90
26182;DHT22;13927;51.534;11.866;2023-08-12T03:05:28;17.10;99.90
26182;DHT22;13927;51.534;11.866;2023-08-12T03:07:56;17.10;99.90
26182;DHT22;13927;51.534;11.866;2023-08-12T03:10:22;17.10;99.90
26182;DHT22;13927;51.534;11.866;2023-08-12T03:12:48;17.10;99.90
26182;DHT22;13927;51.534;11.866;2023-08-12T03:15:14;17.10;99.90
26182;DHT22;13927;51.534;11.866;2023-08-12T03:17:39;17.10;99.90
26182;DHT22;13927;51.534;11.866;2023-08-12T03:20:07;17.00;99.90
26182;DHT22;13927;51.534;11.866;2023-08-12T03:22:35;17.10;99.90
26182;DHT22;13927;51.534;11.866;2023-08-12T03:25:36;17.00;99.90
26182;DHT22;13927;51.534;11.866;2023-08-12T03:28:02;17.00;99.90
26182;DHT22;13927;51.534;11.866;2023-08-12T03:30:27;17.00;99.90
26182;DHT22;13927;51.534;11.866;2023-08-12T03:32:54;17.00;99.90
26182;DHT22;13927;51.534;11.866;2023-08-12T03:35:20;16.90;99.90
26182;DHT22;13927;51.534;11.866;2023-08-12T03:37:46;16.90;99.90
26182;DHT22;13927;51.534;11.866;2023-08-12T03:40:11;16.90;99.90
26182;DHT22;13927;51.534;11.866;2023-08-12T03:42:37;16.90;99.90
26182;DHT22;13927;51.534;11.866;2023-08-12T03:45:03;16.90;99.90
26182;DHT22;13927;51.534;11.866;2023-08-12T03:47:31;16.90;99.90
26182;DHT22;13927;51.534;11.866;2023-08-12T03:49:56;16.90;99.90
26182;DHT22;13927;51.534;11.866;2023-08-12T03:52:22;16.90;99.90
26182;DHT22;13927;51.534;11.866;2023-08-12T03:54:48;16.90;99.90
26182;DHT22;13927;51.534;11.866;2023-08-12T03:57:13;16.90;99.90
26182;DHT22;13927;51.534;11.866;2023-08-12T03:59:39;16.90;99.90
26182;DHT22;13927;51.534;11.866;2023-08-12T04:02:06;16.90;99.90
26182;DHT22;13927;51.534;11.866;2023-08-12T04:04:32;16.90;99.90
26182;DHT22;13927;51.534;11.866;2023-08-12T04:06:57;16.90;99.90
26182;DHT22;13927;51.534;11.866;2023-08-12T04:09:23;16.90;99.90
26182;DHT22;13927;51.534;11.866;2023-08-12T04:11:49;16.90;99.90
26182;DHT22;13927;51.534;11.866;2023-08-12T04:14:15;16.90;99.90
26182;DHT22;13927;51.534;11.866;2023-08-12T04:16:40;17.00;99.90
26182;DHT22;13927;51.534;11.866;2023-08-12T04:19:06;16.90;99.90
26182;DHT22;13927;51.534;11.866;2023-08-12T04:21:32;16.90;99.90
26182;DHT22;13927;51.534;11.866;2023-08-12T04:23:58;17.00;99.90
26182;DHT22;13927;51.534;11.866;2023-08-12T04:26:24;17.00;99.90
26182;DHT22;13927;51.534;11.866;2023-08-12T04:28:49;17.00;99.90
26182;DHT22;13927;51.534;11.866;2023-08-12T04:31:15;17.00;99.90
26182;DHT22;13927;51.534;11.866;2023-08-12T04:33:41;17.10;99.90
26182;DHT22;13927;51.534;11.866;2023-08-12T04:36:06;17.10;99.90
26182;DHT22;13927;51.534;11.866;2023-08-12T04:38:32;17.10;99.90
26182;DHT22;13927;51.534;11.866;2023-08-12T04:40:58;17.10;99.90
26182;DHT22;13927;51.534;11.866;2023-08-12T04:43:24;17.20;99.90
26182;DHT22;13927;51.534;11.866;2023-08-12T04:45:52;17.20;99.90
26182;DHT22;13927;51.534;11.866;2023-08-12T04:48:18;17.20;99.90
26182;DHT22;13927;51.534;11.866;2023-08-12T04:50:44;17.20;99.90
26182;DHT22;13927;51.534;11.866;2023-08-12T04:53:09;17.20;99.90
26182;DHT22;13927;51.534;11.866;2023-08-12T04:55:35;17.30;99.90
26182;DHT22;13927;51.534;11.866;2023-08-12T04:58:02;17.40;99.90
26182;DHT22;13927;51.534;11.866;2023-08-12T05:00:28;17.50;99.90
26182;DHT22;13927;51.534;11.866;2023-08-12T05:02:54;17.60;99.90
26182;DHT22;13927;51.534;11.866;2023-08-12T05:05:19;17.60;99.90
26182;DHT22;13927;51.534;11.866;2023-08-12T05:07:46;17.70;99.90
26182;DHT22;13927;51.534;11.866;2023-08-12T05:10:17;17.80;99.90
26182;DHT22;13927;51.534;11.866;2023-08-12T05:12:46;17.90;99.90
26182;DHT22;13927;51.534;11.866;2023-08-12T05:15:12;18.00;99.90
26182;DHT22;13927;51.534;11.866;2023-08-12T05:17:38;18.10;99.90
26182;DHT22;13927;51.534;11.866;2023-08-12T05:20:04;18.20;99.90
26182;DHT22;13927;51.534;11.866;2023-08-12T05:22:31;18.20;99.90
26182;DHT22;13927;51.534;11.866;2023-08-12T05:24:56;18.30;99.90
26182;DHT22;13927;51.534;11.866;2023-08-12T05:27:22;18.40;99.90
26182;DHT22;13927;51.534;11.866;2023-08-12T05:29:48;18.50;99.90
26182;DHT22;13927;51.534;11.866;2023-08-12T05:32:14;18.60;99.90
26182;DHT22;13927;51.534;11.866;2023-08-12T05:34:41;18.70;99.90
26182;DHT22;13927;51.534;11.866;2023-08-12T05:37:07;18.70;99.90
26182;DHT22;13927;51.534;11.866;2023-08-12T05:39:33;18.80;99.90
26182;DHT22;13927;51.534;11.866;2023-08-12T05:41:59;18.90;99.90
26182;DHT22;13927;51.534;11.866;2023-08-12T05:44:24;19.00;99.90
26182;DHT22;13927;51.534;11.866;2023-08-12T05:46:50;19.10;99.90
26182;DHT22;13927;51.534;11.866;2023-08-12T05:49:16;19.10;99.90
26182;DHT22;13927;51.534;11.866;2023-08-12T05:51:41;19.20;99.90
26182;DHT22;13927;51.534;11.866;2023-08-12T05:54:07;19.30;99.90
26182;DHT22;13927;51.534;11.866;2023-08-12T05:56:33;19.40;99.90
26182;DHT22;13927;51.534;11.866;2023-08-12T05:58:59;19.60;99.90
26182;DHT22;13927;51.534;11.866;2023-08-12T06:01:24;19.70;99.90
26182;DHT22;13927;51.534;11.866;2023-08-12T06:03:51;19.80;99.90
26182;DHT22;13927;51.534;11.866;2023-08-12T06:06:17;19.90;99.90
26182;DHT22;13927;51.534;11.866;2023-08-12T06:08:43;20.00;99.90
26182;DHT22;13927;51.534;11.866;2023-08-12T06:11:09;20.10;99.90
26182;DHT22;13927;51.534;11.866;2023-08-12T06:13:34;20.30;99.90
26182;DHT22;13927;51.534;11.866;2023-08-12T06:16:00;20.50;99.90
26182;DHT22;13927;51.534;11.866;2023-08-12T06:18:26;20.60;99.90
26182;DHT22;13927;51.534;11.866;2023-08-12T06:20:52;20.70;99.90
26182;DHT22;13927;51.534;11.866;2023-08-12T06:23:19;20.80;99.90
26182;DHT22;13927;51.534;11.866;2023-08-12T06:25:45;20.90;99.90
26182;DHT22;13927;51.534;11.866;2023-08-12T06:28:10;20.90;99.90
26182;DHT22;13927;51.534;11.866;2023-08-12T06:30:36;21.00;99.90
26182;DHT22;13927;51.534;11.866;2023-08-12T06:33:03;21.10;99.90
26182;DHT22;13927;51.534;11.866;2023-08-12T06:35:29;21.20;99.90
26182;DHT22;13927;51.534;11.866;2023-08-12T06:37:55;21.30;99.90
26182;DHT22;13927;51.534;11.866;2023-08-12T06:40:20;21.30;99.90
26182;DHT22;13927;51.534;11.866;2023-08-12T06:42:46;21.40;99.90
26182;DHT22;13927;51.534;11.866;2023-08-12T06:45:12;21.40;99.90
26182;DHT22;13927;51.534;11.866;2023-08-12T06:47:38;21.50;99.90
26182;DHT22;13927;51.534;11.866;2023-08-12T06:50:04;21.60;99.90
26182;DHT22;13927;51.534;11.866;2023-08-12T06:52:29;21.60;99.90
26182;DHT22;13927;51.534;11.866;2023-08-12T06:54:55;21.70;99.90
26182;DHT22;13927;51.534;11.866;2023-08-12T06:57:21;21.70;99.90
26182;DHT22;13927;51.534;11.866;2023-08-12T06:59:47;21.70;99.90
26182;DHT22;13927;51.534;11.866;2023-08-12T07:02:12;21.90;99.90
26182;DHT22;13927;51.534;11.866;2023-08-12T07:04:40;21.90;99.90
26182;DHT22;13927;51.534;11.866;2023-08-12T07:07:05;22.00;99.90
26182;DHT22;13927;51.534;11.866;2023-08-12T07:09:31;22.10;99.90
26182;DHT22;13927;51.534;11.866;2023-08-12T07:11:57;22.20;99.90
26182;DHT22;13927;51.534;11.866;2023-08-12T07:14:23;22.30;99.90
26182;DHT22;13927;51.534;11.866;2023-08-12T07:16:48;22.30;99.90
26182;DHT22;13927;51.534;11.866;2023-08-12T07:19:15;22.40;99.90
26182;DHT22;13927;51.534;11.866;2023-08-12T07:21:41;22.50;99.90
26182;DHT22;13927;51.534;11.866;2023-08-12T07:24:07;22.50;99.90
26182;DHT22;13927;51.534;11.866;2023-08-12T07:26:36;22.60;99.90
26182;DHT22;13927;51.534;11.866;2023-08-12T07:29:01;22.60;99.90
26182;DHT22;13927;51.534;11.866;2023-08-12T07:31:27;22.60;99.90
26182;DHT22;13927;51.534;11.866;2023-08-12T07:33:53;22.50;99.90
26182;DHT22;13927;51.534;11.866;2023-08-12T07:36:18;22.50;99.90
26182;DHT22;13927;51.534;11.866;2023-08-12T07:38:44;22.50;99.90
26182;DHT22;13927;51.534;11.866;2023-08-12T07:41:10;22.40;99.90
26182;DHT22;13927;51.534;11.866;2023-08-12T07:43:36;22.40;99.90
26182;DHT22;13927;51.534;11.866;2023-08-12T07:46:01;22.40;99.90
26182;DHT22;13927;51.534;11.866;2023-08-12T07:48:27;22.40;99.90
26182;DHT22;13927;51.534;11.866;2023-08-12T07:50:59;22.30;99.90
26182;DHT22;13927;51.534;11.866;2023-08-12T07:53:25;22.30;99.90
26182;DHT22;13927;51.534;11.866;2023-08-12T07:55:52;22.30;99.90
26182;DHT22;13927;51.534;11.866;2023-08-12T07:58:18;22.30;99.90
26182;DHT22;13927;51.534;11.866;2023-08-12T08:00:44;22.30;99.90
26182;DHT22;13927;51.534;11.866;2023-08-12T08:03:09;22.30;99.90
26182;DHT22;13927;51.534;11.866;2023-08-12T08:05:41;22.40;99.90
26182;DHT22;13927;51.534;11.866;2023-08-12T08:08:07;22.40;99.90
26182;DHT22;13927;51.534;11.866;2023-08-12T08:10:33;22.40;99.90
26182;DHT22;13927;51.534;11.866;2023-08-12T08:12:59;22.40;99.90
26182;DHT22;13927;51.534;11.866;2023-08-12T08:15:25;22.40;99.90
26182;DHT22;13927;51.534;11.866;2023-08-12T08:17:50;22.50;99.90
26182;DHT22;13927;51.534;11.866;2023-08-12T08:20:19;22.60;99.90
26182;DHT22;13927;51.534;11.866;2023-08-12T08:22:45;22.60;99.90
26182;DHT22;13927;51.534;11.866;2023-08-12T08:25:10;22.70;99.90
26182;DHT22;13927;51.534;11.866;2023-08-12T08:27:36;22.70;99.90
26182;DHT22;13927;51.534;11.866;2023-08-12T08:30:04;22.80;99.90
26182;DHT22;13927;51.534;11.866;2023-08-12T08:32:31;22.90;99.90
26182;DHT22;13927;51.534;11.866;2023-08-12T08:34:57;22.90;99.90
26182;DHT22;13927;51.534;11.866;2023-08-12T08:37:22;22.90;99.90
26182;DHT22;13927;51.534;11.866;2023-08-12T08:39:48;22.90;99.90
26182;DHT22;13927;51.534;11.866;2023-08-12T08:42:15;23.00;99.90
26182;DHT22;13927;51.534;11.866;2023-08-12T08:44:42;23.00;99.90
26182;DHT22;13927;51.534;11.866;2023-08-12T08:47:08;23.10;99.90
26182;DHT22;13927;51.534;11.866;2023-08-12T08:49:36;23.10;99.90
26182;DHT22;13927;51.534;11.866;2023-08-12T08:52:03;23.20;99.90
26182;DHT22;13927;51.534;11.866;2023-08-12T08:54:29;23.20;99.90
26182;DHT22;13927;51.534;11.866;2023-08-12T08:56:55;23.30;99.90
26182;DHT22;13927;51.534;11.866;2023-08-12T08:59:22;23.40;99.90
26182;DHT22;13927;51.534;11.866;2023-08-12T09:01:49;23.40;99.90
26182;DHT22;13927;51.534;11.866;2023-08-12T09:04:21;23.50;99.90
26182;DHT22;13927;51.534;11.866;2023-08-12T09:06:47;23.60;99.90
26182;DHT22;13927;51.534;11.866;2023-08-12T09:09:19;23.60;99.90
26182;DHT22;13927;51.534;11.866;2023-08-12T09:11:45;23.70;99.90
26182;DHT22;13927;51.534;11.866;2023-08-12T09:14:13;23.80;99.90
26182;DHT22;13927;51.534;11.866;2023-08-12T09:16:40;23.90;99.90
26182;DHT22;13927;51.534;11.866;2023-08-12T09:19:09;24.00;99.90
26182;DHT22;13927;51.534;11.866;2023-08-12T09:21:35;24.20;99.90
26182;DHT22;13927;51.534;11.866;2023-08-12T09:24:04;24.30;99.90
26182;DHT22;13927;51.534;11.866;2023-08-12T09:26:30;24.30;99.90
26182;DHT22;13927;51.534;11.866;2023-08-12T09:28:59;24.30;99.90
26182;DHT22;13927;51.534;11.866;2023-08-12T09:31:35;24.30;99.90
26182;DHT22;13927;51.534;11.866;2023-08-12T09:34:06;24.30;99.90
26182;DHT22;13927;51.534;11.866;2023-08-12T09:36:32;24.20;99.90
26182;DHT22;13927;51.534;11.866;2023-08-12T09:38:58;24.10;99.90
26182;DHT22;13927;51.534;11.866;2023-08-12T09:41:27;24.00;99.90
26182;DHT22;13927;51.534;11.866;2023-08-12T09:43:56;23.80;99.90
26182;DHT22;13927;51.534;11.866;2023-08-12T09:46:24;23.80;99.90
26182;DHT22;13927;51.534;11.866;2023-08-12T09:48:51;23.80;99.90
26182;DHT22;13927;51.534;11.866;2023-08-12T09:51:18;23.80;99.90
26182;DHT22;13927;51.534;11.866;2023-08-12T09:53:45;23.80;99.90
26182;DHT22;13927;51.534;11.866;2023-08-12T09:56:16;23.70;99.90
26182;DHT22;13927;51.534;11.866;2023-08-12T09:58:43;23.60;99.90
26182;DHT22;13927;51.534;11.866;2023-08-12T10:01:10;23.60;99.90
26182;DHT22;13927;51.534;11.866;2023-08-12T10:03:37;23.60;99.90
26182;DHT22;13927;51.534;11.866;2023-08-12T10:06:06;23.70;99.90
26182;DHT22;13927;51.534;11.866;2023-08-12T10:08:32;23.70;99.90
26182;DHT22;13927;51.534;11.866;2023-08-12T10:11:00;23.70;99.90
26182;DHT22;13927;51.534;11.866;2023-08-12T10:13:27;23.80;99.90
26182;DHT22;13927;51.534;11.866;2023-08-12T10:15:54;23.80;99.90
26182;DHT22;13927;51.534;11.866;2023-08-12T10:18:22;23.80;99.90
26182;DHT22;13927;51.534;11.866;2023-08-12T10:20:50;23.90;99.90
26182;DHT22;13927;51.534;11.866;2023-08-12T10:23:17;23.80;99.90
26182;DHT22;13927;51.534;11.866;2023-08-12T10:25:44;24.00;99.90
26182;DHT22;13927;51.534;11.866;2023-08-12T10:28:13;24.10;99.90
26182;DHT22;13927;51.534;11.866;2023-08-12T10:30:40;24.20;99.90
26182;DHT22;13927;51.534;11.866;2023-08-12T10:33:08;24.40;99.90
26182;DHT22;13927;51.534;11.866;2023-08-12T10:35:49;24.60;99.90
26182;DHT22;13927;51.534;11.866;2023-08-12T10:38:19;24.80;99.90
26182;DHT22;13927;51.534;11.866;2023-08-12T10:40:51;25.00;99.90
26182;DHT22;13927;51.534;11.866;2023-08-12T10:43:16;25.10;99.90
26182;DHT22;13927;51.534;11.866;2023-08-12T10:45:52;25.30;99.90
26182;DHT22;13927;51.534;11.866;2023-08-12T10:48:24;25.30;99.90
26182;DHT22;13927;51.534;11.866;2023-08-12T10:50:56;25.40;99.90
26182;DHT22;13927;51.534;11.866;2023-08-12T10:53:28;25.50;99.90
26182;DHT22;13927;51.534;11.866;2023-08-12T10:56:01;25.80;99.90
26182;DHT22;13927;51.534;11.866;2023-08-12T10:58:49;26.10;99.90
26182;DHT22;13927;51.534;11.866;2023-08-12T11:01:17;26.40;99.90
26182;DHT22;13927;51.534;11.866;2023-08-12T11:03:44;26.70;99.90
26182;DHT22;13927;51.534;11.866;2023-08-12T11:06:12;26.80;99.90
26182;DHT22;13927;51.534;11.866;2023-08-12T11:08:52;27.10;99.90
26182;DHT22;13927;51.534;11.866;2023-08-12T11:11:23;27.40;99.90
26182;DHT22;13927;51.534;11.866;2023-08-12T11:13:58;27.80;99.90
26182;DHT22;13927;51.534;11.866;2023-08-12T11:16:37;28.00;99.90
26182;DHT22;13927;51.534;11.866;2023-08-12T11:19:04;28.10;99.90
26182;DHT22;13927;51.534;11.866;2023-08-12T11:21:30;28.20;99.90
26182;DHT22;13927;51.534;11.866;2023-08-12T11:23:56;28.40;99.90
26182;DHT22;13927;51.534;11.866;2023-08-12T11:26:23;28.40;99.90
26182;DHT22;13927;51.534;11.866;2023-08-12T11:28:49;28.70;99.90
26182;DHT22;13927;51.534;11.866;2023-08-12T11:31:16;28.90;99.90
26182;DHT22;13927;51.534;11.866;2023-08-12T11:33:43;29.20;99.90
26182;DHT22;13927;51.534;11.866;2023-08-12T11:36:09;29.60;99.90
26182;DHT22;13927;51.534;11.866;2023-08-12T11:38:37;29.80;99.90
26182;DHT22;13927;51.534;11.866;2023-08-12T11:41:03;29.70;99.90
26182;DHT22;13927;51.534;11.866;2023-08-12T11:43:32;30.30;99.90
26182;DHT22;13927;51.534;11.866;2023-08-12T11:45:59;30.30;99.90
26182;DHT22;13927;51.534;11.866;2023-08-12T11:48:27;30.30;99.90
26182;DHT22;13927;51.534;11.866;2023-08-12T11:50:54;30.40;99.90
26182;DHT22;13927;51.534;11.866;2023-08-12T11:53:20;30.40;99.90
26182;DHT22;13927;51.534;11.866;2023-08-12T11:55:47;30.50;99.90
26182;DHT22;13927;51.534;11.866;2023-08-12T11:58:14;30.70;99.90
26182;DHT22;13927;51.534;11.866;2023-08-12T12:00:46;30.90;99.90
26182;DHT22;13927;51.534;11.866;2023-08-12T12:03:13;31.10;99.90
26182;DHT22;13927;51.534;11.866;2023-08-12T12:05:42;31.40;99.90
26182;DHT22;13927;51.534;11.866;2023-08-12T12:08:11;31.60;99.90
26182;DHT22;13927;51.534;11.866;2023-08-12T12:10:39;31.90;99.90
26182;DHT22;13927;51.534;11.866;2023-08-12T12:15:37;32.10;99.90
26182;DHT22;13927;51.534;11.866;2023-08-12T12:18:13;32.20;99.90
26182;DHT22;13927;51.534;11.866;2023-08-12T12:20:53;32.30;99.90
26182;DHT22;13927;51.534;11.866;2023-08-12T12:23:21;32.20;99.90
26182;DHT22;13927;51.534;11.866;2023-08-12T12:25:47;32.30;99.90
26182;DHT22;13927;51.534;11.866;2023-08-12T12:28:13;32.30;99.90
26182;DHT22;13927;51.534;11.866;2023-08-12T12:30:38;31.90;99.90
26182;DHT22;13927;51.534;11.866;2023-08-12T12:33:04;31.40;99.90
26182;DHT22;13927;51.534;11.866;2023-08-12T12:35:30;30.80;99.90
26182;DHT22;13927;51.534;11.866;2023-08-12T12:37:56;30.60;99.90
26182;DHT22;13927;51.534;11.866;2023-08-12T12:40:22;30.30;99.90
26182;DHT22;13927;51.534;11.866;2023-08-12T12:42:47;30.30;99.90
26182;DHT22;13927;51.534;11.866;2023-08-12T12:45:13;30.20;99.90
26182;DHT22;13927;51.534;11.866;2023-08-12T12:47:39;30.10;99.90
26182;DHT22;13927;51.534;11.866;2023-08-12T12:50:07;30.20;99.90
26182;DHT22;13927;51.534;11.866;2023-08-12T12:52:34;30.80;99.90
26182;DHT22;13927;51.534;11.866;2023-08-12T12:54:59;31.50;99.90
26182;DHT22;13927;51.534;11.866;2023-08-12T12:57:26;32.00;99.90
26182;DHT22;13927;51.534;11.866;2023-08-12T12:59:51;32.30;99.90
26182;DHT22;13927;51.534;11.866;2023-08-12T13:02:17;32.30;99.90
26182;DHT22;13927;51.534;11.866;2023-08-12T13:04:43;32.30;99.90
26182;DHT22;13927;51.534;11.866;2023-08-12T13:07:09;32.10;99.90
26182;DHT22;13927;51.534;11.866;2023-08-12T13:09:36;31.80;99.90
26182;DHT22;13927;51.534;11.866;2023-08-12T13:12:02;31.40;99.90
26182;DHT22;13927;51.534;11.866;2023-08-12T13:14:28;31.20;99.90
26182;DHT22;13927;51.534;11.866;2023-08-12T13:16:55;31.10;99.90
26182;DHT22;13927;51.534;11.866;2023-08-12T13:19:21;31.30;99.90
26182;DHT22;13927;51.534;11.866;2023-08-12T13:21:47;31.70;99.90
26182;DHT22;13927;51.534;11.866;2023-08-12T13:24:13;31.80;99.90
26182;DHT22;13927;51.534;11.866;2023-08-12T13:26:39;31.70;99.90
26182;DHT22;13927;51.534;11.866;2023-08-12T13:29:04;31.40;99.90
26182;DHT22;13927;51.534;11.866;2023-08-12T13:31:30;31.00;99.90
26182;DHT22;13927;51.534;11.866;2023-08-12T13:33:56;30.60;99.90
26182;DHT22;13927;51.534;11.866;2023-08-12T13:36:22;30.50;99.90
26182;DHT22;13927;51.534;11.866;2023-08-12T13:38:48;30.40;99.90
26182;DHT22;13927;51.534;11.866;2023-08-12T13:41:14;30.50;99.90
26182;DHT22;13927;51.534;11.866;2023-08-12T13:43:40;30.70;99.90
26182;DHT22;13927;51.534;11.866;2023-08-12T13:46:06;30.70;99.90
26182;DHT22;13927;51.534;11.866;2023-08-12T13:48:32;30.70;99.90
26182;DHT22;13927;51.534;11.866;2023-08-12T13:50:58;31.00;99.90
26182;DHT22;13927;51.534;11.866;2023-08-12T13:53:24;31.40;99.90
26182;DHT22;13927;51.534;11.866;2023-08-12T13:55:50;32.10;99.90
26182;DHT22;13927;51.534;11.866;2023-08-12T13:58:16;32.60;99.90
26182;DHT22;13927;51.534;11.866;2023-08-12T14:00:41;32.80;99.90
26182;DHT22;13927;51.534;11.866;2023-08-12T14:03:07;32.90;99.90
26182;DHT22;13927;51.534;11.866;2023-08-12T14:05:33;32.50;99.90
26182;DHT22;13927;51.534;11.866;2023-08-12T14:08:00;32.20;99.90
26182;DHT22;13927;51.534;11.866;2023-08-12T14:10:26;32.00;99.90
26182;DHT22;13927;51.534;11.866;2023-08-12T14:12:52;31.80;99.90
26182;DHT22;13927;51.534;11.866;2023-08-12T14:15:18;31.50;99.90
26182;DHT22;13927;51.534;11.866;2023-08-12T14:17:44;31.40;99.90
26182;DHT22;13927;51.534;11.866;2023-08-12T14:20:12;31.20;99.90
26182;DHT22;13927;51.534;11.866;2023-08-12T14:22:41;31.00;99.90
26182;DHT22;13927;51.534;11.866;2023-08-12T14:25:09;30.80;99.90
26182;DHT22;13927;51.534;11.866;2023-08-12T14:27:36;30.80;99.90
26182;DHT22;13927;51.534;11.866;2023-08-12T14:30:03;30.60;99.90
26182;DHT22;13927;51.534;11.866;2023-08-12T14:32:29;30.40;99.90
26182;DHT22;13927;51.534;11.866;2023-08-12T14:34:55;30.40;99.90
26182;DHT22;13927;51.534;11.866;2023-08-12T14:37:20;30.20;99.90
26182;DHT22;13927;51.534;11.866;2023-08-12T14:39:46;30.10;99.90
26182;DHT22;13927;51.534;11.866;2023-08-12T14:42:12;30.00;99.90
26182;DHT22;13927;51.534;11.866;2023-08-12T14:44:37;29.90;99.90
26182;DHT22;13927;51.534;11.866;2023-08-12T14:47:03;29.80;99.90
26182;DHT22;13927;51.534;11.866;2023-08-12T14:49:30;29.70;99.90
26182;DHT22;13927;51.534;11.866;2023-08-12T14:51:56;29.60;99.90
26182;DHT22;13927;51.534;11.866;2023-08-12T14:54:22;29.50;99.90
26182;DHT22;13927;51.534;11.866;2023-08-12T14:56:48;29.50;99.90
26182;DHT22;13927;51.534;11.866;2023-08-12T14:59:13;29.40;99.90
26182;DHT22;13927;51.534;11.866;2023-08-12T15:01:39;29.30;99.90
26182;DHT22;13927;51.534;11.866;2023-08-12T15:04:05;29.20;99.90
26182;DHT22;13927;51.534;11.866;2023-08-12T15:06:31;29.20;99.90
26182;DHT22;13927;51.534;11.866;2023-08-12T15:08:56;29.20;99.90
26182;DHT22;13927;51.534;11.866;2023-08-12T15:11:22;29.10;99.90
26182;DHT22;13927;51.534;11.866;2023-08-12T15:13:49;29.10;99.90
26182;DHT22;13927;51.534;11.866;2023-08-12T15:16:14;29.00;99.90
26182;DHT22;13927;51.534;11.866;2023-08-12T15:18:43;28.90;99.90
26182;DHT22;13927;51.534;11.866;2023-08-12T15:21:09;28.80;99.90
26182;DHT22;13927;51.534;11.866;2023-08-12T15:23:34;28.70;99.90
26182;DHT22;13927;51.534;11.866;2023-08-12T15:26:01;28.70;99.90
26182;DHT22;13927;51.534;11.866;2023-08-12T15:28:30;28.50;99.90
26182;DHT22;13927;51.534;11.866;2023-08-12T15:30:55;28.40;99.90